Station Historical Data
Daily Summary for October 8, 2017 Units:  Metric    English   Both
« Previous Day
Next Day »
Daily Weekly Monthly Yearly Custom
  High: Low: Average:
Temperature: 23.3 °C 21 °C 22.6 °C
Dew Point: 22.1 °C 19.8 °C 21.4 °C
Humidity: 94% 87% 93%
Wind Speed: 32.2km/h 9.7km/h 19.5km/h
Wind Gust: 59.5km/h - -
Wind- - SE
Pressure: 1014.4 hPa 1005.3 hPa -
Precipitation: 110.24 mm    
Historical Graphs
 
 
Tabular Data for October 8, 2017
Time Temperature Dew Point Pressure Wind Wind Speed Wind Gust Humidity Rainfall Rate (Hourly) Conditions
00:00 23.3 °C 21.1 °C 1014.4 hPa East 12.9 km/h 12.9 km/h 87% 0 mm OVC
00:05 23.3 °C 21.1 °C 1014.4 hPa East 12.9 km/h 12.9 km/h 87% 0 mm OVC
00:10 23.2 °C 21.1 °C 1014.4 hPa East 12.9 km/h 12.9 km/h 88% 0 mm OVC
00:15 23.2 °C 21.1 °C 1014.4 hPa East 12.9 km/h 12.9 km/h 88% 0 mm -RA
00:20 23.1 °C 21.2 °C 1014.4 hPa East 12.9 km/h 12.9 km/h 89% 0 mm -RA
00:30 22.9 °C 21.1 °C 1014.1 hPa East 12.9 km/h 12.9 km/h 89% 0 mm -RA
00:40 22.9 °C 21.2 °C 1014.1 hPa East 12.9 km/h 12.9 km/h 90% 0 mm -RA
00:45 22.8 °C 21.1 °C 1014.1 hPa East 11.3 km/h 12.9 km/h 90% 0 mm OVC
00:50 22.8 °C 21.1 °C 1014.1 hPa East 11.3 km/h 11.3 km/h 90% 0 mm OVC
00:55 22.8 °C 21.1 °C 1014.1 hPa East 11.3 km/h 11.3 km/h 90% 0 mm OVC
01:00 22.8 °C 21.1 °C 1013.8 hPa East 11.3 km/h 11.3 km/h 90% 0 mm OVC
01:10 22.8 °C 21.2 °C 1013.8 hPa East 11.3 km/h 11.3 km/h 91% 0 mm OVC
01:15 22.8 °C 21.2 °C 1013.8 hPa East 11.3 km/h 11.3 km/h 91% 0 mm -RA
01:20 22.7 °C 21.2 °C 1013.4 hPa East 11.3 km/h 11.3 km/h 91% 0 mm -RA
01:25 22.7 °C 21.1 °C 1013.4 hPa East 12.9 km/h 12.9 km/h 91% 0 mm OVC
01:30 22.6 °C 21.1 °C 1013.4 hPa East 12.9 km/h 12.9 km/h 91% 0 mm OVC
01:35 22.6 °C 21.1 °C 1013.1 hPa East 12.9 km/h 12.9 km/h 91% 0 mm OVC
01:40 22.6 °C 21.2 °C 1013.1 hPa East 12.9 km/h 12.9 km/h 92% 0 mm OVC
01:45 22.6 °C 21.2 °C 1013.1 hPa East 12.9 km/h 12.9 km/h 92% 0 mm OVC
01:50 22.6 °C 21.2 °C 1013.1 hPa East 12.9 km/h 12.9 km/h 92% 0 mm OVC
01:55 22.6 °C 21.2 °C 1012.8 hPa East 11.3 km/h 12.9 km/h 92% 0 mm OVC
02:05 22.6 °C 21.2 °C 1012.8 hPa East 11.3 km/h 11.3 km/h 92% 0 mm OVC
02:10 22.6 °C 21.2 °C 1012.8 hPa East 11.3 km/h 11.3 km/h 92% 0 mm OVC
02:15 22.6 °C 21.2 °C 1012.8 hPa East 14.5 km/h 14.5 km/h 92% 0 mm OVC
02:25 22.6 °C 21.2 °C 1012.8 hPa East 11.3 km/h 14.5 km/h 92% 0 mm OVC
02:30 22.6 °C 21.2 °C 1012.8 hPa East 11.3 km/h 11.3 km/h 92% 0 mm OVC
02:35 22.6 °C 21.2 °C 1012.8 hPa East 11.3 km/h 11.3 km/h 92% 0 mm OVC
02:45 22.6 °C 21.2 °C 1012.4 hPa East 9.7 km/h 11.3 km/h 92% 0 mm -DZ
02:55 22.6 °C 21.2 °C 1012.8 hPa East 9.7 km/h 9.7 km/h 92% 0 mm -DZ
03:00 22.6 °C 21.2 °C 1012.4 hPa East 9.7 km/h 9.7 km/h 92% 0 mm -DZ
03:05 22.6 °C 21.2 °C 1012.4 hPa East 9.7 km/h 9.7 km/h 92% 0 mm -DZ
03:10 22.6 °C 21.2 °C 1012.4 hPa East 9.7 km/h 9.7 km/h 92% 0 mm -DZ
03:15 22.6 °C 21.2 °C 1012.4 hPa East 9.7 km/h 9.7 km/h 92% 0 mm -RA
03:20 22.6 °C 21.2 °C 1012.4 hPa East 9.7 km/h 9.7 km/h 92% 0 mm -RA
03:25 22.6 °C 21.2 °C 1012.4 hPa East 9.7 km/h 9.7 km/h 92% 0 mm -RA
03:30 22.6 °C 21.4 °C 1012.4 hPa East 9.7 km/h 9.7 km/h 93% 0 mm -RA
03:40 22.6 °C 21.4 °C 1012.4 hPa East 9.7 km/h 9.7 km/h 93% 0 mm -RA
03:45 22.6 °C 21.4 °C 1012.4 hPa East 11.3 km/h 11.3 km/h 93% 0 mm OVC
03:50 22.6 °C 21.4 °C 1012.1 hPa East 11.3 km/h 11.3 km/h 93% 0 mm OVC
03:55 22.6 °C 21.4 °C 1012.1 hPa East 11.3 km/h 11.3 km/h 93% 0 mm OVC
04:00 22.6 °C 21.4 °C 1012.1 hPa East 11.3 km/h 11.3 km/h 93% 0 mm OVC
04:05 22.6 °C 21.4 °C 1012.1 hPa East 11.3 km/h 11.3 km/h 93% 0 mm OVC
04:10 22.7 °C 21.4 °C 1012.1 hPa East 11.3 km/h 11.3 km/h 93% 0 mm OVC
04:15 22.7 °C 21.5 °C 1012.1 hPa East 14.5 km/h 14.5 km/h 93% 0 mm -DZ
04:20 22.7 °C 21.5 °C 1011.7 hPa East 14.5 km/h 14.5 km/h 93% 0 mm -DZ
04:30 22.7 °C 21.6 °C 1011.7 hPa ESE 14.5 km/h 14.5 km/h 93% 0 mm -DZ
04:45 22.7 °C 21.6 °C 1011.4 hPa ESE 14.5 km/h 14.5 km/h 93% 0.25 mm -DZ
04:50 22.8 °C 21.6 °C 1011.4 hPa ESE 14.5 km/h 14.5 km/h 93% 0 mm -DZ
04:55 22.8 °C 21.6 °C 1011.1 hPa ESE 20.9 km/h 20.9 km/h 93% 0 mm -RA
05:00 22.8 °C 21.6 °C 1011.1 hPa ESE 20.9 km/h 20.9 km/h 93% 0 mm -RA
05:05 22.8 °C 21.6 °C 1011.4 hPa ESE 20.9 km/h 20.9 km/h 93% 0 mm -RA
05:10 22.8 °C 21.7 °C 1011.1 hPa ESE 20.9 km/h 20.9 km/h 93% 0.25 mm -RA
05:15 22.8 °C 21.7 °C 1011.1 hPa ESE 20.9 km/h 20.9 km/h 93% 0 mm -RA
05:20 22.8 °C 21.7 °C 1011.1 hPa ESE 20.9 km/h 20.9 km/h 93% 0 mm -RA
05:25 22.8 °C 21.7 °C 1010.7 hPa ESE 19.3 km/h 20.9 km/h 93% 0 mm -RA
05:30 22.8 °C 21.7 °C 1010.7 hPa ESE 19.3 km/h 19.3 km/h 93% 0.25 mm -RA
05:40 22.8 °C 21.7 °C 1010.7 hPa ESE 19.3 km/h 19.3 km/h 93% 0 mm -RA
05:45 22.8 °C 21.7 °C 1010.7 hPa ESE 19.3 km/h 19.3 km/h 93% 0 mm -RA
05:50 22.8 °C 21.7 °C 1010.7 hPa ESE 19.3 km/h 19.3 km/h 93% 0 mm -RA
05:55 22.9 °C 21.7 °C 1010.7 hPa ESE 19.3 km/h 19.3 km/h 93% 0 mm -DZ
06:00 22.9 °C 21.7 °C 1010.4 hPa East 19.3 km/h 19.3 km/h 93% 0.25 mm -DZ
06:05 22.9 °C 21.7 °C 1010.4 hPa East 19.3 km/h 19.3 km/h 93% 0 mm -DZ
06:10 22.9 °C 21.7 °C 1010.4 hPa East 19.3 km/h 19.3 km/h 93% 0 mm -DZ
06:15 22.9 °C 21.7 °C 1010.4 hPa East 14.5 km/h 19.3 km/h 93% 0 mm -RA
06:20 22.9 °C 21.7 °C 1010.4 hPa East 14.5 km/h 14.5 km/h 93% 0 mm -RA
06:30 22.9 °C 21.7 °C 1010.4 hPa East 14.5 km/h 14.5 km/h 93% 0 mm -RA
06:40 22.9 °C 21.8 °C 1010.4 hPa East 14.5 km/h 14.5 km/h 93% 0 mm -RA
06:45 22.9 °C 21.8 °C 1010.4 hPa East 14.5 km/h 14.5 km/h 93% 0 mm -RA
06:50 22.9 °C 21.8 °C 1010.4 hPa East 14.5 km/h 14.5 km/h 93% 0 mm -RA
06:55 22.9 °C 21.8 °C 1010.4 hPa East 16.1 km/h 16.1 km/h 93% 0 mm -DZ
07:00 22.9 °C 21.8 °C 1010.4 hPa East 16.1 km/h 16.1 km/h 93% 0.25 mm -DZ
07:05 22.9 °C 21.8 °C 1010 hPa East 16.1 km/h 16.1 km/h 93% 0.25 mm -DZ
07:15 22.9 °C 21.9 °C 1010 hPa East 16.1 km/h 16.1 km/h 94% 0 mm -RA
07:20 23 °C 22 °C 1010 hPa East 16.1 km/h 16.1 km/h 94% 0 mm -RA
07:25 23 °C 22 °C 1010 hPa East 16.1 km/h 16.1 km/h 94% 0 mm -RA
07:30 23 °C 22 °C 1010 hPa East 16.1 km/h 16.1 km/h 94% 0 mm -RA
07:35 23 °C 22 °C 1010 hPa East 16.1 km/h 16.1 km/h 94% 0.25 mm -RA
07:40 23.1 °C 22 °C 1010 hPa East 16.1 km/h 16.1 km/h 94% 0 mm -RA
07:45 23.1 °C 22.1 °C 1010 hPa ESE 20.9 km/h 20.9 km/h 94% 0.25 mm -RA
07:50 23.1 °C 22.1 °C 1010 hPa ESE 20.9 km/h 20.9 km/h 94% 1.02 mm -RA
07:55 23.1 °C 22.1 °C 1010 hPa ESE 19.3 km/h 20.9 km/h 94% 0.76 mm -RA
08:00 23.1 °C 22.1 °C 1010.4 hPa ESE 19.3 km/h 19.3 km/h 94% 0 mm -RA
08:05 23.1 °C 22.1 °C 1010.4 hPa ESE 19.3 km/h 19.3 km/h 94% 0.25 mm -RA
08:10 23.1 °C 22.1 °C 1010.4 hPa ESE 19.3 km/h 19.3 km/h 94% 0.25 mm -RA
08:15 23.1 °C 22.1 °C 1010.4 hPa ESE 22.5 km/h 22.5 km/h 94% 0 mm -RA
08:20 23.1 °C 22.1 °C 1010.4 hPa ESE 22.5 km/h 22.5 km/h 94% 0 mm -RA
08:30 23.1 °C 22.1 °C 1010.4 hPa ESE 22.5 km/h 22.5 km/h 94% 0.25 mm -RA
08:35 23.1 °C 22.1 °C 1010.4 hPa ESE 22.5 km/h 22.5 km/h 94% 0 mm -RA
08:40 23.1 °C 22.1 °C 1010.4 hPa ESE 22.5 km/h 22.5 km/h 94% 0 mm -RA
08:45 23 °C 22 °C 1010.4 hPa ESE 20.9 km/h 22.5 km/h 94% 0.25 mm -RA
08:50 23 °C 22 °C 1010.4 hPa ESE 20.9 km/h 20.9 km/h 94% 0 mm -RA
08:55 23 °C 22 °C 1010.4 hPa ESE 22.5 km/h 22.5 km/h 94% 0 mm -DZ
09:00 23 °C 22 °C 1010.4 hPa ESE 22.5 km/h 22.5 km/h 94% 0 mm -DZ
09:05 23 °C 22 °C 1010.4 hPa ESE 22.5 km/h 22.5 km/h 94% 0 mm -DZ
09:10 23 °C 22 °C 1010.4 hPa ESE 22.5 km/h 22.5 km/h 94% 0.25 mm -DZ
09:15 23 °C 22 °C 1010.4 hPa ESE 24.1 km/h 24.1 km/h 94% 0 mm -RA
09:20 23 °C 22 °C 1010.4 hPa ESE 24.1 km/h 24.1 km/h 94% 0 mm -RA
09:30 23 °C 22 °C 1010.4 hPa ESE 24.1 km/h 24.1 km/h 94% 0.25 mm -RA
09:35 23 °C 22 °C 1010.4 hPa ESE 24.1 km/h 24.1 km/h 94% 0 mm -RA
09:45 23 °C 22 °C 1010 hPa ESE 24.1 km/h 24.1 km/h 94% 0 mm -RA
09:50 23 °C 22 °C 1010 hPa ESE 24.1 km/h 24.1 km/h 94% 0 mm -RA
09:55 23 °C 22 °C 1010 hPa ESE 24.1 km/h 24.1 km/h 94% 0.25 mm -RA
10:05 23 °C 22 °C 1010 hPa ESE 24.1 km/h 24.1 km/h 94% 0.51 mm -RA
10:10 23 °C 22 °C 1010 hPa ESE 24.1 km/h 24.1 km/h 94% 1.27 mm -RA
10:15 23 °C 22 °C 1010 hPa ESE 20.9 km/h 24.1 km/h 94% 2.79 mm RA
10:20 23 °C 22 °C 1009.7 hPa ESE 20.9 km/h 20.9 km/h 94% 0.76 mm RA
10:25 23 °C 22 °C 1009.7 hPa ESE 20.9 km/h 20.9 km/h 94% 0.51 mm -RA
10:35 23.1 °C 22.1 °C 1009.7 hPa ESE 20.9 km/h 20.9 km/h 94% 1.27 mm -RA
10:40 23.1 °C 22.1 °C 1010 hPa ESE 20.9 km/h 20.9 km/h 94% 5.33 mm -RA
10:45 23 °C 22 °C 1010 hPa SE 27.4 km/h 59.5 km/h 94% 12.19 mm -RA
10:50 22.8 °C 21.8 °C 1010 hPa SSE 27.4 km/h 59.5 km/h 94% 11.43 mm -RA
11:00 22.1 °C 20.9 °C 1009.7 hPa SSE 14.5 km/h 46.7 km/h 93% 10.41 mm -RA
11:05 22.2 °C 21.2 °C 1009.7 hPa SSE 14.5 km/h 46.7 km/h 94% 0.76 mm -RA
11:10 22.2 °C 21.2 °C 1010 hPa SSE 14.5 km/h 46.7 km/h 94% 0.25 mm -RA
11:15 22.3 °C 21.3 °C 1010 hPa SSE 20.9 km/h 46.7 km/h 94% 0.51 mm -RA
11:20 22.4 °C 21.4 °C 1010 hPa SSE 20.9 km/h 38.6 km/h 94% 0.51 mm -RA
11:25 22.4 °C 21.4 °C 1010 hPa SSE 20.9 km/h 38.6 km/h 94% 0.76 mm -RA
11:30 22.5 °C 21.5 °C 1010 hPa SSE 20.9 km/h 38.6 km/h 94% 0.76 mm -RA
11:35 22.6 °C 21.6 °C 1010 hPa SSE 20.9 km/h 38.6 km/h 94% 0.51 mm -RA
11:40 22.6 °C 21.6 °C 1010 hPa SSE 20.9 km/h 38.6 km/h 94% 0.51 mm -RA
11:45 22.7 °C 21.7 °C 1010 hPa SSE 20.9 km/h 38.6 km/h 94% 0.25 mm -RA
11:50 22.7 °C 21.7 °C 1010 hPa SSE 20.9 km/h 38.6 km/h 94% 0.25 mm -RA
11:55 22.6 °C 21.6 °C 1010 hPa SSE 20.9 km/h 38.6 km/h 94% 0.51 mm -RA
12:00 22.6 °C 21.6 °C 1010 hPa SSE 20.9 km/h 38.6 km/h 94% 0.51 mm -RA
12:05 22.6 °C 21.6 °C 1010 hPa SSE 20.9 km/h 38.6 km/h 94% 0.51 mm -RA
12:10 22.6 °C 21.6 °C 1009.7 hPa SSE 20.9 km/h 38.6 km/h 94% 0.25 mm -RA
12:15 22.6 °C 21.6 °C 1009.7 hPa SE 24.1 km/h 51.5 km/h 94% 0.51 mm -RA
12:20 22.5 °C 21.5 °C 1009.7 hPa SE 24.1 km/h 51.5 km/h 94% 0.25 mm -RA
12:25 22.4 °C 21.4 °C 1009.4 hPa SE 24.1 km/h 51.5 km/h 94% 0.25 mm -RA
12:30 22.3 °C 21.1 °C 1009.4 hPa SE 24.1 km/h 51.5 km/h 93% 0.25 mm -RA
12:35 22.2 °C 21.1 °C 1009.4 hPa SE 24.1 km/h 51.5 km/h 93% 0.25 mm -RA
12:40 22.3 °C 21.3 °C 1009.7 hPa SE 24.1 km/h 51.5 km/h 94% 0.25 mm -RA
12:45 22.3 °C 21.3 °C 1009.7 hPa SE 24.1 km/h 51.5 km/h 94% 0.25 mm -RA
12:50 22.3 °C 21.3 °C 1009.4 hPa SE 24.1 km/h 51.5 km/h 94% 0.25 mm -RA
12:55 22.4 °C 21.4 °C 1009.4 hPa SE 25.7 km/h 51.5 km/h 94% 0 mm -RA
13:05 22.6 °C 21.6 °C 1009.4 hPa SE 25.7 km/h 25.7 km/h 94% 0 mm -RA
13:10 22.6 °C 21.6 °C 1009 hPa SE 25.7 km/h 25.7 km/h 94% 0 mm -RA
13:20 22.6 °C 21.6 °C 1009 hPa SE 22.5 km/h 40.2 km/h 94% 0 mm -RA
13:25 22.6 °C 21.6 °C 1009 hPa SE 22.5 km/h 45.1 km/h 94% 0 mm -RA
13:30 22.6 °C 21.3 °C 1008.7 hPa SSE 22.5 km/h 45.1 km/h 93% 0 mm -RA
13:40 22.5 °C 21.3 °C 1008.7 hPa SSE 22.5 km/h 45.1 km/h 93% 0 mm -RA
13:45 22.5 °C 21.3 °C 1008.7 hPa SE 24.1 km/h 48.3 km/h 93% 0.25 mm -RA
13:50 22.4 °C 21.2 °C 1008.4 hPa SE 24.1 km/h 48.3 km/h 93% 0 mm -RA
13:55 22.2 °C 21.1 °C 1008 hPa SE 24.1 km/h 48.3 km/h 93% 0 mm -RA
14:00 22.2 °C 21 °C 1008 hPa SE 24.1 km/h 48.3 km/h 93% 0 mm -RA
14:05 22.1 °C 20.7 °C 1007.7 hPa SE 24.1 km/h 48.3 km/h 92% 0 mm -RA
14:15 21.8 °C 20.4 °C 1007.7 hPa SE 27.4 km/h 48.3 km/h 92% 0.25 mm -RA
14:20 21.7 °C 20.3 °C 1007.7 hPa SE 27.4 km/h 45.1 km/h 92% 0 mm -RA
14:25 21.6 °C 20.2 °C 1007.7 hPa SE 24.1 km/h 45.1 km/h 92% 1.02 mm -RA
14:30 21.4 °C 20.1 °C 1007.3 hPa SE 24.1 km/h 45.1 km/h 92% 0.51 mm -RA
14:35 21.3 °C 20 °C 1007.3 hPa SE 24.1 km/h 45.1 km/h 92% 1.02 mm -RA
14:40 21.3 °C 20.1 °C 1007 hPa SE 24.1 km/h 45.1 km/h 93% 1.52 mm -RA
14:45 21.2 °C 20 °C 1006.7 hPa SE 27.4 km/h 45.1 km/h 93% 1.27 mm RA
14:50 21.1 °C 19.9 °C 1006.7 hPa SE 27.4 km/h 27.4 km/h 93% 0.51 mm OVC
14:55 21.1 °C 19.9 °C 1006.7 hPa SE 25.7 km/h 27.4 km/h 93% 0.51 mm -RA
15:00 21 °C 19.8 °C 1006.7 hPa ESE 25.7 km/h 25.7 km/h 93% 2.03 mm -RA
15:05 21 °C 19.8 °C 1006.3 hPa ESE 25.7 km/h 25.7 km/h 93% 1.27 mm -RA
15:10 21 °C 19.8 °C 1006 hPa ESE 25.7 km/h 25.7 km/h 93% 0.51 mm -RA
15:15 21.1 °C 20.1 °C 1006 hPa ESE 29 km/h 29 km/h 94% 1.02 mm RA
15:20 21.2 °C 20.2 °C 1006 hPa ESE 29 km/h 29 km/h 94% 0.76 mm RA
15:25 21.3 °C 20.3 °C 1005.6 hPa ESE 29 km/h 46.7 km/h 94% 0.25 mm OVC
15:30 21.4 °C 20.4 °C 1006 hPa East 29 km/h 46.7 km/h 94% 0.51 mm RA
15:40 21.6 °C 20.6 °C 1005.6 hPa East 29 km/h 46.7 km/h 94% 1.52 mm RA
15:45 21.7 °C 20.7 °C 1005.6 hPa East 29 km/h 46.7 km/h 94% 1.78 mm RA
15:50 21.7 °C 20.7 °C 1005.6 hPa East 29 km/h 46.7 km/h 94% 1.27 mm RA
15:55 21.8 °C 20.8 °C 1005.6 hPa ESE 27.4 km/h 46.7 km/h 94% 1.27 mm RA
16:00 21.9 °C 20.9 °C 1005.6 hPa ESE 27.4 km/h 27.4 km/h 94% 1.02 mm RA
16:10 22.1 °C 21.1 °C 1005.6 hPa ESE 27.4 km/h 27.4 km/h 94% 0.25 mm OVC
16:15 22.1 °C 21.1 °C 1005.6 hPa SE 32.2 km/h 57.9 km/h 94% 0.76 mm RA
16:20 22 °C 21 °C 1005.6 hPa SE 32.2 km/h 57.9 km/h 94% 0.51 mm RA
16:30 22.1 °C 21.1 °C 1005.3 hPa SE 32.2 km/h 57.9 km/h 94% 1.52 mm RA
16:40 22.2 °C 21.2 °C 1005.3 hPa SE 32.2 km/h 57.9 km/h 94% 0.51 mm RA
16:45 22.2 °C 21.2 °C 1005.3 hPa SE 32.2 km/h 57.9 km/h 94% 0.76 mm RA
16:50 22.3 °C 21.3 °C 1005.3 hPa SE 32.2 km/h 57.9 km/h 94% 0.51 mm OVC
16:55 22.4 °C 21.4 °C 1005.3 hPa SE 16.1 km/h 57.9 km/h 94% 0.25 mm -RA
17:05 22.5 °C 21.5 °C 1005.3 hPa SSE 16.1 km/h 16.1 km/h 94% 0 mm -RA
17:10 22.6 °C 21.6 °C 1005.3 hPa SSE 16.1 km/h 16.1 km/h 94% 0 mm -RA
17:15 22.6 °C 21.6 °C 1005.6 hPa SE 27.4 km/h 27.4 km/h 94% 0.25 mm -RA
17:20 22.6 °C 21.6 °C 1005.6 hPa SE 27.4 km/h 27.4 km/h 94% 0 mm -RA
17:25 22.6 °C 21.6 °C 1005.6 hPa SE 22.5 km/h 41.8 km/h 94% 0 mm OVC
17:30 22.7 °C 21.7 °C 1005.6 hPa SSE 22.5 km/h 41.8 km/h 94% 0 mm OVC
17:40 22.8 °C 21.8 °C 1005.6 hPa SSE 22.5 km/h 41.8 km/h 94% 0 mm OVC
17:45 22.8 °C 21.8 °C 1005.6 hPa SSE 22.5 km/h 41.8 km/h 94% 0.51 mm -RA
17:50 22.8 °C 21.8 °C 1005.6 hPa SSE 22.5 km/h 22.5 km/h 94% 0.51 mm -RA
18:00 22.9 °C 21.8 °C 1005.6 hPa SSE 22.5 km/h 22.5 km/h 94% 0.25 mm -RA
18:05 22.9 °C 21.9 °C 1005.6 hPa SSE 22.5 km/h 22.5 km/h 94% 0.25 mm -RA
18:10 22.9 °C 21.9 °C 1005.6 hPa SSE 22.5 km/h 22.5 km/h 94% 0.25 mm -RA
18:15 22.9 °C 21.9 °C 1006 hPa SSE 16.1 km/h 22.5 km/h 94% 0 mm -RA
18:20 22.9 °C 21.9 °C 1006 hPa SSE 16.1 km/h 16.1 km/h 94% 0 mm -RA
18:25 22.9 °C 21.9 °C 1006 hPa SSE 16.1 km/h 38.6 km/h 94% 0 mm OVC
18:30 22.9 °C 21.9 °C 1006.3 hPa South 16.1 km/h 38.6 km/h 94% 0 mm OVC
18:40 22.9 °C 21.9 °C 1006.3 hPa South 16.1 km/h 38.6 km/h 94% 0 mm OVC
18:45 22.9 °C 21.9 °C 1006.3 hPa South 16.1 km/h 38.6 km/h 94% 0 mm OVC
18:50 22.9 °C 21.9 °C 1006.3 hPa South 16.1 km/h 38.6 km/h 94% 0 mm OVC
19:05 22.9 °C 21.9 °C 1006.3 hPa South 16.1 km/h 38.6 km/h 94% 0 mm OVC
19:10 22.8 °C 21.8 °C 1006.3 hPa South 16.1 km/h 38.6 km/h 94% 0 mm OVC
19:15 22.8 °C 21.8 °C 1006.7 hPa SSE 16.1 km/h 38.6 km/h 94% 0 mm OVC
19:20 22.8 °C 21.8 °C 1006.7 hPa SSE 16.1 km/h 16.1 km/h 94% 0 mm OVC
19:25 22.8 °C 21.8 °C 1006.7 hPa SSE 16.1 km/h 16.1 km/h 94% 0 mm OVC
19:30 22.8 °C 21.8 °C 1006.7 hPa SSE 16.1 km/h 16.1 km/h 94% 0 mm OVC
19:40 22.7 °C 21.7 °C 1006.7 hPa SSE 16.1 km/h 16.1 km/h 94% 0 mm OVC
19:45 22.7 °C 21.7 °C 1007 hPa SSE 22.5 km/h 40.2 km/h 94% 0 mm OVC
19:50 22.7 °C 21.7 °C 1007 hPa SSE 22.5 km/h 40.2 km/h 94% 0 mm OVC
19:55 22.7 °C 21.6 °C 1007 hPa SSE 22.5 km/h 40.2 km/h 94% 0 mm OVC
20:00 22.6 °C 21.6 °C 1007 hPa SSE 22.5 km/h 40.2 km/h 94% 0 mm OVC
20:05 22.6 °C 21.4 °C 1007.3 hPa SSE 22.5 km/h 40.2 km/h 93% 0 mm OVC
20:10 22.6 °C 21.4 °C 1007.3 hPa SSE 22.5 km/h 40.2 km/h 93% 0 mm OVC
20:15 22.6 °C 21.4 °C 1007.3 hPa SSE 20.9 km/h 40.2 km/h 93% 0 mm OVC
20:20 22.6 °C 21.4 °C 1007.3 hPa South 20.9 km/h 37 km/h 93% 0 mm OVC
20:25 22.6 °C 21.4 °C 1007.3 hPa South 20.9 km/h 37 km/h 93% 0 mm OVC
20:30 22.6 °C 21.3 °C 1007.3 hPa South 20.9 km/h 37 km/h 93% 0 mm OVC
20:40 22.5 °C 21.3 °C 1007.3 hPa South 20.9 km/h 37 km/h 93% 0 mm OVC
20:45 22.6 °C 21.3 °C 1007.3 hPa South 20.9 km/h 37 km/h 93% 0 mm OVC
20:50 22.6 °C 21.4 °C 1007.7 hPa South 20.9 km/h 37 km/h 93% 0 mm OVC
20:55 22.6 °C 21.4 °C 1007.7 hPa South 20.9 km/h 37 km/h 93% 0 mm OVC
21:00 22.6 °C 21.4 °C 1007.7 hPa South 20.9 km/h 37 km/h 93% 0 mm OVC
21:05 22.6 °C 21.4 °C 1007.7 hPa South 20.9 km/h 37 km/h 93% 0 mm OVC
21:10 22.6 °C 21.4 °C 1007.7 hPa South 20.9 km/h 37 km/h 93% 0 mm OVC
21:15 22.6 °C 21.4 °C 1007.7 hPa SSE 14.5 km/h 37 km/h 93% 0 mm OVC
21:20 22.6 °C 21.4 °C 1008 hPa SSE 14.5 km/h 32.2 km/h 93% 0 mm OVC
21:25 22.7 °C 21.4 °C 1008 hPa SSE 14.5 km/h 32.2 km/h 93% 0 mm OVC
21:30 22.7 °C 21.5 °C 1008 hPa SSE 14.5 km/h 32.2 km/h 93% 0 mm OVC
21:40 22.7 °C 21.5 °C 1008 hPa SSE 14.5 km/h 32.2 km/h 93% 0 mm OVC
21:45 22.7 °C 21.5 °C 1008.4 hPa SSE 14.5 km/h 32.2 km/h 93% 0 mm OVC
21:50 22.7 °C 21.5 °C 1008.4 hPa SSE 14.5 km/h 32.2 km/h 93% 0 mm OVC
21:55 22.7 °C 21.6 °C 1008.4 hPa South 16.1 km/h 32.2 km/h 93% 0 mm OVC
22:00 22.7 °C 21.6 °C 1008.7 hPa South 16.1 km/h 16.1 km/h 93% 0 mm OVC
22:05 22.7 °C 21.6 °C 1008.7 hPa South 16.1 km/h 16.1 km/h 93% 0 mm OVC
22:15 22.7 °C 21.6 °C 1009 hPa South 20.9 km/h 37 km/h 93% 0 mm -DZ
22:20 22.7 °C 21.6 °C 1009 hPa South 20.9 km/h 37 km/h 93% 0 mm -DZ
22:25 22.8 °C 21.6 °C 1009 hPa South 20.9 km/h 37 km/h 93% 0 mm -DZ
22:30 22.8 °C 21.6 °C 1009 hPa South 20.9 km/h 37 km/h 93% 0 mm -DZ
22:40 22.8 °C 21.6 °C 1009.4 hPa South 20.9 km/h 37 km/h 93% 0 mm -DZ
22:45 22.8 °C 21.7 °C 1009.4 hPa South 20.9 km/h 37 km/h 93% 0 mm -DZ
22:50 22.8 °C 21.7 °C 1009.4 hPa South 20.9 km/h 37 km/h 93% 0 mm -DZ
22:55 22.8 °C 21.7 °C 1009.4 hPa South 20.9 km/h 37 km/h 93% 0 mm -DZ
23:00 22.8 °C 21.7 °C 1009.4 hPa South 20.9 km/h 37 km/h 93% 0.25 mm -DZ
23:05 22.8 °C 21.6 °C 1009.7 hPa South 20.9 km/h 37 km/h 93% 0 mm -DZ
23:10 22.8 °C 21.7 °C 1009.7 hPa South 20.9 km/h 37 km/h 93% 0.25 mm -DZ
23:25 22.8 °C 21.8 °C 1009.7 hPa South 20.9 km/h 38.6 km/h 94% 0.25 mm -DZ
23:30 22.8 °C 21.8 °C 1010 hPa South 20.9 km/h 38.6 km/h 94% 0 mm -DZ
23:40 22.8 °C 21.8 °C 1010 hPa South 20.9 km/h 38.6 km/h 94% 0.25 mm -DZ
23:50 22.8 °C 21.8 °C 1010 hPa South 12.9 km/h 12.9 km/h 94% 0 mm -RA
23:55 22.8 °C 21.8 °C 1010 hPa South 12.9 km/h 12.9 km/h 94% 0 mm -RA
Piedmont Bend
Compliments of Weather Underground - 2 mb